7°C Temp
1°C Dewpoint
66% Humidity
Temperature
11 KM/H
7 MPH
6 KTS
330°
North North
West

Wind Speed
Mostly Scattered
Clouds
Pressure 1018.92 (hPa) - 30.09 (in)
Visibility 6.2 (mi) - 10.0 (km)

Current Conditions
LIPR
Location 4(km)
Metar :LIPR 281620Z 33006KT 300V010 9999 SCT035 BKN040 07/01 Q1019
Sat 28th January 18:20 pm

Airport
  Metar Aviation API Data Provided by https://www.checkwx.com/ PHP scripts by weather34.com ©2023